Joes, Colorado
Current Conditions -  °F | °C
As of 12:53 PM on Thursday 30 Oct 2014 (Local Time) from KITR Reporting Station
Clear Clear  
Wind Chill: 62°   Ceiling: Unl
Heat Index: 62°   Visibility: 10mi
Dew Point: 25°   Wind: 17mph
Humidity: 24%   Direction: 330°NNW
Pressure: 30.33"   Gusts: 23mph
Location:  39.66°N, 102.68°W
Report Text: KITR 301853Z AUTO 33015G20KT 10SM CLR 17/M04 A3033 RMK AO2 SLP251 T01671039
Loading
Personal Weather Stations






























Interactive Weather Map
Tropical Storm Tracking
New forecast layout! Learn more

10-Day Weather Forecast

Advertisements
Track Severe Weather on mobile